createdAt,value
2022-07-31T00:00:24.654Z,69.43
2022-07-31T00:02:52.575Z,68.76
2022-07-31T00:05:20.388Z,70.22
2022-07-31T00:07:48.127Z,69.79
2022-07-31T00:10:15.868Z,68.96
2022-07-31T00:12:43.720Z,68.77
2022-07-31T00:15:12.548Z,68.07
2022-07-31T00:17:42.418Z,67.39
2022-07-31T00:20:13.225Z,66.91
2022-07-31T00:22:41.143Z,67.05
2022-07-31T00:25:10.484Z,66.93
2022-07-31T00:27:38.367Z,66.45
2022-07-31T00:30:07.194Z,66.77
2022-07-31T00:32:35.272Z,66.49
2022-07-31T00:35:05.085Z,66.14
2022-07-31T00:37:32.785Z,66.42
2022-07-31T00:40:00.496Z,66.31
2022-07-31T00:42:30.097Z,65.81
2022-07-31T00:44:57.821Z,66.46
2022-07-31T00:47:27.191Z,66.11
2022-07-31T00:49:54.997Z,66.03
2022-07-31T00:52:24.052Z,66.38
2022-07-31T00:54:51.949Z,66.77
2022-07-31T00:57:19.695Z,66.10
2022-07-31T00:59:47.463Z,65.30
2022-07-31T01:02:15.448Z,65.77
2022-07-31T01:04:44.567Z,65.74
2022-07-31T01:07:13.683Z,66.86
2022-07-31T01:09:44.832Z,65.84
2022-07-31T01:12:16.385Z,66.06
2022-07-31T01:14:47.433Z,66.23
2022-07-31T01:17:16.715Z,65.86
2022-07-31T01:19:46.081Z,65.70
2022-07-31T01:22:33.748Z,66.29
2022-07-31T01:25:09.572Z,66.20
2022-07-31T01:27:50.102Z,65.72
2022-07-31T01:30:19.904Z,65.76
2022-07-31T01:32:49.680Z,65.74
2022-07-31T01:35:20.993Z,65.83
2022-07-31T01:37:53.781Z,66.03
2022-07-31T01:40:27.364Z,66.35
2022-07-31T01:42:57.822Z,66.61
2022-07-31T01:45:27.392Z,66.69
2022-07-31T01:47:56.673Z,66.20
2022-07-31T01:50:43.091Z,66.75
2022-07-31T01:53:14.073Z,67.13
2022-07-31T01:55:56.453Z,66.95
2022-07-31T01:58:33.792Z,67.22
2022-07-31T02:01:04.273Z,67.39
2022-07-31T02:03:43.566Z,67.26
2022-07-31T02:06:14.622Z,67.89
2022-07-31T02:08:44.200Z,67.34
2022-07-31T02:11:13.945Z,68.37
2022-07-31T02:13:41.858Z,67.76
2022-07-31T02:16:11.067Z,67.44
2022-07-31T02:18:39.157Z,67.80
2022-07-31T02:21:07.132Z,67.60
2022-07-31T02:23:35.075Z,67.81
2022-07-31T02:26:04.606Z,68.00
2022-07-31T02:28:33.379Z,68.25
2022-07-31T02:31:02.603Z,68.53
2022-07-31T02:33:32.349Z,67.78
2022-07-31T02:36:01.061Z,68.75
2022-07-31T02:38:29.198Z,69.23
2022-07-31T02:40:59.192Z,68.46
2022-07-31T02:43:27.583Z,68.96
2022-07-31T02:45:55.958Z,68.14
2022-07-31T02:48:24.706Z,68.67
2022-07-31T02:50:56.872Z,68.25
2022-07-31T02:53:25.042Z,68.09
2022-07-31T02:55:52.848Z,67.78
2022-07-31T02:58:20.777Z,67.85
2022-07-31T03:00:48.769Z,67.70
2022-07-31T03:03:16.553Z,68.36
2022-07-31T03:05:44.305Z,67.96
2022-07-31T03:08:13.397Z,68.01
2022-07-31T03:10:41.110Z,68.06
2022-07-31T03:13:09.764Z,68.13
2022-07-31T03:15:39.034Z,68.37
2022-07-31T03:18:11.248Z,68.14
2022-07-31T03:20:40.409Z,67.81
2022-07-31T03:23:09.052Z,68.17
2022-07-31T03:25:38.556Z,68.51
2022-07-31T03:28:06.279Z,68.16
2022-07-31T03:30:34.008Z,68.06
2022-07-31T03:33:03.409Z,68.35
2022-07-31T03:35:31.620Z,68.56
2022-07-31T03:37:59.333Z,68.65
2022-07-31T03:40:27.223Z,68.38
2022-07-31T03:42:57.044Z,68.27
2022-07-31T03:45:25.556Z,69.45
2022-07-31T03:47:53.325Z,69.16
2022-07-31T03:50:22.412Z,69.91
2022-07-31T03:52:50.899Z,68.90
2022-07-31T03:55:18.613Z,69.22
2022-07-31T03:57:47.623Z,69.43
2022-07-31T04:00:19.126Z,69.37
2022-07-31T04:02:47.167Z,69.53
2022-07-31T04:05:15.101Z,69.31
2022-07-31T04:07:42.787Z,69.50
2022-07-31T04:10:11.290Z,69.25
2022-07-31T04:12:39.334Z,69.49
2022-07-31T04:15:07.918Z,69.47
2022-07-31T04:17:38.474Z,70.58
2022-07-31T04:20:07.522Z,69.67
2022-07-31T04:22:35.260Z,69.27
2022-07-31T04:25:07.246Z,69.67
2022-07-31T04:27:36.171Z,70.53
2022-07-31T04:30:16.364Z,70.17
2022-07-31T04:32:45.693Z,70.43
2022-07-31T04:35:13.610Z,70.65
2022-07-31T04:37:48.011Z,71.02
2022-07-31T04:40:17.036Z,71.80
2022-07-31T04:42:44.762Z,70.66
2022-07-31T04:45:12.594Z,71.21
2022-07-31T04:47:40.336Z,72.38
2022-07-31T04:50:10.600Z,71.29
2022-07-31T04:52:38.338Z,70.76
2022-07-31T04:55:06.829Z,71.31
2022-07-31T04:57:34.609Z,71.36
2022-07-31T05:00:02.451Z,71.69
2022-07-31T05:02:32.507Z,72.08
2022-07-31T05:05:00.294Z,72.56
2022-07-31T05:07:30.938Z,71.94
2022-07-31T05:09:59.000Z,71.64
2022-07-31T05:12:27.097Z,73.05
2022-07-31T05:14:54.823Z,72.95
2022-07-31T05:17:22.657Z,72.21
2022-07-31T05:19:50.349Z,72.42
2022-07-31T05:22:18.855Z,73.93
2022-07-31T05:24:48.101Z,74.59
2022-07-31T05:27:15.854Z,73.65
2022-07-31T05:29:43.775Z,72.29
2022-07-31T05:32:12.053Z,72.66
2022-07-31T05:34:39.997Z,75.66
2022-07-31T05:37:07.784Z,75.69
2022-07-31T05:39:35.521Z,73.44
2022-07-31T05:42:07.841Z,73.43
2022-07-31T05:44:35.671Z,73.07
2022-07-31T05:47:05.446Z,74.14
2022-07-31T05:49:33.247Z,74.11
2022-07-31T05:52:02.680Z,75.34
2022-07-31T05:54:34.732Z,75.75
2022-07-31T05:57:04.118Z,75.58
2022-07-31T05:59:35.513Z,74.64
2022-07-31T06:02:05.207Z,75.14
2022-07-31T06:04:33.184Z,74.86
2022-07-31T06:07:00.917Z,74.08
2022-07-31T06:09:28.889Z,74.39
2022-07-31T06:11:56.878Z,76.36
2022-07-31T06:14:24.668Z,76.80
2022-07-31T06:16:53.725Z,75.85
2022-07-31T06:19:24.627Z,74.23
2022-07-31T06:21:54.003Z,74.88
2022-07-31T06:24:21.917Z,75.15
2022-07-31T06:26:49.779Z,76.39
2022-07-31T06:29:17.627Z,74.95
2022-07-31T06:31:45.315Z,75.26
2022-07-31T06:34:17.113Z,75.33
2022-07-31T06:36:47.546Z,75.21
2022-07-31T06:39:15.252Z,76.58
2022-07-31T06:41:47.471Z,75.30
2022-07-31T06:44:15.523Z,76.25
2022-07-31T06:46:49.019Z,76.54
2022-07-31T06:49:18.796Z,77.08
2022-07-31T06:51:46.568Z,76.47
2022-07-31T06:54:14.323Z,75.43
2022-07-31T06:56:42.068Z,75.86
2022-07-31T06:59:09.992Z,76.74
2022-07-31T07:01:37.797Z,76.33
2022-07-31T07:04:05.981Z,76.56
2022-07-31T07:06:35.044Z,76.38
2022-07-31T07:09:04.136Z,75.96
2022-07-31T07:11:31.817Z,75.92
2022-07-31T07:13:59.527Z,75.62
2022-07-31T07:16:27.262Z,75.76
2022-07-31T07:18:55.958Z,75.62
2022-07-31T07:21:23.929Z,75.93
2022-07-31T07:23:52.980Z,75.62
2022-07-31T07:26:20.784Z,75.37
2022-07-31T07:28:48.493Z,74.66
2022-07-31T07:31:16.294Z,75.69
2022-07-31T07:33:43.997Z,75.45
2022-07-31T07:36:23.677Z,74.14
2022-07-31T07:38:55.627Z,76.50
2022-07-31T07:41:24.302Z,75.23
2022-07-31T07:43:52.718Z,75.41
2022-07-31T07:46:21.547Z,74.99
2022-07-31T07:48:50.810Z,74.26
2022-07-31T07:51:18.777Z,73.51
2022-07-31T07:53:46.535Z,73.51
2022-07-31T07:56:15.825Z,72.72
2022-07-31T07:58:43.640Z,72.65
2022-07-31T08:01:11.494Z,72.28
2022-07-31T08:03:48.688Z,73.78
2022-07-31T08:06:19.984Z,73.70
2022-07-31T08:08:47.846Z,71.52
2022-07-31T08:11:18.009Z,69.93
2022-07-31T08:13:51.235Z,70.11
2022-07-31T08:16:20.118Z,69.74
2022-07-31T08:18:47.931Z,68.97
2022-07-31T08:21:16.029Z,68.52
2022-07-31T08:23:43.837Z,67.51
2022-07-31T08:26:13.794Z,67.26
2022-07-31T08:28:50.295Z,66.98
2022-07-31T08:31:19.746Z,65.37
2022-07-31T08:33:47.537Z,65.82
2022-07-31T08:36:15.355Z,67.28
2022-07-31T08:38:43.086Z,68.07
2022-07-31T08:41:10.785Z,68.03
2022-07-31T08:44:02.436Z,68.20
2022-07-31T08:46:27.861Z,68.01
2022-07-31T08:48:58.066Z,66.67
2022-07-31T08:51:26.519Z,67.15
2022-07-31T08:53:54.378Z,65.81
2022-07-31T08:56:22.459Z,65.67
2022-07-31T08:58:50.270Z,65.23
2022-07-31T09:01:18.456Z,64.40
2022-07-31T09:03:47.519Z,65.34
2022-07-31T09:06:15.338Z,64.29
2022-07-31T09:08:43.186Z,63.42
2022-07-31T09:11:13.283Z,64.22
2022-07-31T09:13:41.643Z,62.73
2022-07-31T09:16:09.351Z,64.27
2022-07-31T09:18:37.140Z,63.40
2022-07-31T09:21:07.912Z,63.36
2022-07-31T09:23:45.193Z,62.70
2022-07-31T09:26:13.015Z,62.15
2022-07-31T09:28:43.152Z,61.79
2022-07-31T09:31:12.067Z,61.63
2022-07-31T09:33:45.349Z,61.13
2022-07-31T09:36:15.785Z,62.01
2022-07-31T09:38:44.416Z,60.87
2022-07-31T09:41:55.961Z,60.10
2022-07-31T09:44:09.436Z,60.35
2022-07-31T09:46:41.439Z,60.64
2022-07-31T09:49:09.201Z,60.22
2022-07-31T09:51:42.503Z,58.98
2022-07-31T09:54:21.310Z,59.72
2022-07-31T09:56:50.066Z,60.27
2022-07-31T09:59:17.858Z,60.70
2022-07-31T10:01:48.657Z,59.12
2022-07-31T10:04:18.667Z,58.58
2022-07-31T10:06:49.583Z,57.95
2022-07-31T10:09:19.434Z,58.74
2022-07-31T10:11:47.621Z,57.31
2022-07-31T10:14:20.420Z,57.42
2022-07-31T10:16:49.745Z,57.44
2022-07-31T10:19:18.309Z,57.07
2022-07-31T10:21:54.507Z,56.80
2022-07-31T10:24:27.936Z,56.44
2022-07-31T10:27:00.884Z,56.81
2022-07-31T10:29:32.793Z,56.40
2022-07-31T10:32:03.085Z,56.05
2022-07-31T10:34:31.426Z,57.06
2022-07-31T10:37:11.112Z,57.40
2022-07-31T10:39:46.990Z,56.46
2022-07-31T10:42:24.109Z,55.16
2022-07-31T10:44:54.923Z,55.40
2022-07-31T10:47:22.712Z,55.94
2022-07-31T10:49:50.796Z,54.73
2022-07-31T10:52:29.896Z,55.32
2022-07-31T10:54:58.220Z,55.78
2022-07-31T10:57:27.134Z,55.24
2022-07-31T10:59:54.928Z,54.34
2022-07-31T11:02:30.098Z,54.22
2022-07-31T11:05:11.716Z,54.65
2022-07-31T11:07:41.591Z,54.40
2022-07-31T11:10:14.245Z,54.31
2022-07-31T11:12:42.117Z,54.40
2022-07-31T11:15:21.337Z,54.33
2022-07-31T11:18:23.781Z,54.95
2022-07-31T11:20:36.987Z,53.58
2022-07-31T11:23:08.095Z,54.96
2022-07-31T11:25:37.610Z,54.37
2022-07-31T11:28:13.521Z,54.20
2022-07-31T11:30:52.290Z,54.27
2022-07-31T11:33:31.677Z,54.47
2022-07-31T11:36:11.612Z,53.81
2022-07-31T11:38:42.526Z,53.79
2022-07-31T11:41:14.298Z,53.99
2022-07-31T11:43:45.138Z,54.12
2022-07-31T11:46:13.348Z,54.32
2022-07-31T11:48:45.328Z,54.24
2022-07-31T11:51:17.995Z,53.68
2022-07-31T11:53:56.697Z,53.78
2022-07-31T11:56:27.241Z,54.77
2022-07-31T11:58:56.633Z,53.40
2022-07-31T12:01:27.099Z,54.04
2022-07-31T12:03:55.309Z,54.32
2022-07-31T12:06:23.239Z,53.30
2022-07-31T12:08:52.435Z,53.36
2022-07-31T12:11:21.086Z,53.03
2022-07-31T12:13:49.789Z,53.69
2022-07-31T12:16:18.552Z,53.33
2022-07-31T12:18:48.181Z,52.80
2022-07-31T12:21:16.559Z,52.37
2022-07-31T12:23:46.285Z,52.27
2022-07-31T12:26:23.608Z,52.83
2022-07-31T12:28:58.483Z,52.60
2022-07-31T12:31:26.455Z,52.65
2022-07-31T12:33:54.370Z,52.20
2022-07-31T12:36:22.528Z,52.11
2022-07-31T12:39:00.181Z,51.34
2022-07-31T12:41:29.525Z,52.29
2022-07-31T12:43:57.381Z,52.55
2022-07-31T12:46:37.231Z,52.84
2022-07-31T12:49:05.477Z,52.70
2022-07-31T12:51:45.371Z,53.01
2022-07-31T12:54:15.369Z,52.74
2022-07-31T12:56:44.872Z,52.99
2022-07-31T12:59:13.108Z,53.36
2022-07-31T13:01:40.980Z,52.68
2022-07-31T13:04:18.652Z,53.26
2022-07-31T13:06:51.339Z,53.03
2022-07-31T13:09:20.006Z,52.83
2022-07-31T13:11:52.138Z,53.19
2022-07-31T13:14:23.361Z,53.47
2022-07-31T13:16:52.477Z,53.87
2022-07-31T13:19:20.616Z,53.19
2022-07-31T13:21:50.173Z,53.74
2022-07-31T13:24:19.159Z,53.74
2022-07-31T13:26:48.694Z,54.22
2022-07-31T13:29:16.596Z,53.59
2022-07-31T13:31:44.543Z,53.26
2022-07-31T13:34:12.344Z,53.81
2022-07-31T13:36:40.252Z,54.05
2022-07-31T13:39:08.086Z,54.14
2022-07-31T13:41:36.647Z,54.26
2022-07-31T13:44:09.349Z,54.13
2022-07-31T13:46:37.383Z,54.01
2022-07-31T13:49:08.268Z,54.52
2022-07-31T13:51:36.685Z,54.77
2022-07-31T13:54:04.641Z,54.96
2022-07-31T13:56:37.524Z,55.19
2022-07-31T13:59:12.362Z,55.40
2022-07-31T14:02:02.876Z,54.93
2022-07-31T14:04:28.610Z,55.19
2022-07-31T14:07:00.740Z,54.80
2022-07-31T14:09:29.682Z,54.85
2022-07-31T14:11:57.445Z,55.20
2022-07-31T14:14:26.629Z,55.33
2022-07-31T14:16:55.337Z,55.61
2022-07-31T14:19:23.033Z,55.12
2022-07-31T14:21:56.767Z,55.35
2022-07-31T14:24:25.673Z,55.80
2022-07-31T14:26:53.700Z,55.98
2022-07-31T14:29:21.533Z,55.91
2022-07-31T14:31:51.345Z,56.50
2022-07-31T14:34:19.105Z,55.62
2022-07-31T14:36:46.824Z,56.39
2022-07-31T14:39:14.731Z,55.46
2022-07-31T14:41:42.460Z,55.23
2022-07-31T14:44:10.204Z,55.54
2022-07-31T14:46:37.950Z,55.04
2022-07-31T14:49:08.504Z,56.10
2022-07-31T14:51:36.304Z,56.43
2022-07-31T14:54:04.048Z,59.10
2022-07-31T14:56:58.879Z,59.72
2022-07-31T14:59:19.921Z,59.52
2022-07-31T15:01:47.768Z,61.84
2022-07-31T15:04:16.928Z,63.49
2022-07-31T15:06:55.971Z,63.75
2022-07-31T15:09:31.114Z,64.98
2022-07-31T15:12:01.212Z,65.18
2022-07-31T15:14:29.485Z,64.71
2022-07-31T15:16:57.236Z,64.89
2022-07-31T15:19:26.293Z,66.48
2022-07-31T15:22:09.985Z,65.15
2022-07-31T15:24:48.343Z,66.66
2022-07-31T15:27:17.612Z,66.07
2022-07-31T15:30:04.506Z,65.66
2022-07-31T15:32:33.200Z,66.27
2022-07-31T15:35:03.034Z,65.65
2022-07-31T15:37:31.003Z,66.97
2022-07-31T15:40:02.366Z,66.49
2022-07-31T15:42:31.294Z,68.20
2022-07-31T15:44:59.076Z,67.91
2022-07-31T15:47:26.825Z,68.51
2022-07-31T15:49:54.596Z,70.17
2022-07-31T15:52:23.721Z,69.34
2022-07-31T15:54:52.597Z,69.92
2022-07-31T15:57:20.820Z,68.47
2022-07-31T15:59:49.433Z,70.13
2022-07-31T16:02:17.773Z,69.79
2022-07-31T16:04:53.063Z,70.09
2022-07-31T16:08:32.666Z,72.55
2022-07-31T16:10:16.149Z,73.35
2022-07-31T16:12:45.723Z,74.07
2022-07-31T16:15:13.749Z,74.06
2022-07-31T16:17:41.519Z,73.56
2022-07-31T16:20:11.761Z,73.67
2022-07-31T16:22:42.305Z,74.61
2022-07-31T16:25:11.681Z,72.91
2022-07-31T16:27:40.317Z,72.50
2022-07-31T16:30:08.809Z,72.34
2022-07-31T16:32:36.737Z,72.72
2022-07-31T16:35:06.102Z,72.52
2022-07-31T16:37:51.587Z,73.13
2022-07-31T16:40:29.730Z,73.13
2022-07-31T16:43:50.124Z,73.42
2022-07-31T16:45:51.231Z,73.80
2022-07-31T16:48:19.326Z,74.24
2022-07-31T16:50:54.132Z,73.93
2022-07-31T16:54:14.298Z,74.16
2022-07-31T16:56:11.910Z,74.81
2022-07-31T16:58:39.624Z,74.43
2022-07-31T17:01:53.941Z,75.98
2022-07-31T17:04:00.713Z,74.69
2022-07-31T17:06:36.368Z,75.95
2022-07-31T17:09:16.451Z,75.33
2022-07-31T17:11:48.909Z,74.71
2022-07-31T17:14:18.145Z,74.95
2022-07-31T17:16:48.428Z,75.47
2022-07-31T17:19:41.046Z,77.82
2022-07-31T17:22:05.492Z,76.86
2022-07-31T17:24:36.471Z,76.20
2022-07-31T17:27:06.695Z,75.68
2022-07-31T17:29:34.887Z,77.64
2022-07-31T17:32:05.919Z,77.70
2022-07-31T17:34:35.203Z,77.81
2022-07-31T17:37:07.419Z,76.04
2022-07-31T17:39:35.935Z,76.33
2022-07-31T17:42:06.552Z,76.22
2022-07-31T17:47:07.676Z,75.59
2022-07-31T17:47:26.396Z,76.63
2022-07-31T17:49:54.615Z,78.97
2022-07-31T17:52:22.320Z,76.76
2022-07-31T17:54:51.257Z,76.26
2022-07-31T17:57:22.675Z,75.95
2022-07-31T17:59:51.510Z,77.74
2022-07-31T18:02:19.290Z,75.89
2022-07-31T18:04:47.028Z,76.81
2022-07-31T18:07:17.750Z,76.43
2022-07-31T18:09:46.048Z,75.64
2022-07-31T18:12:15.835Z,75.70
2022-07-31T18:14:46.223Z,76.97
2022-07-31T18:17:13.944Z,76.89
2022-07-31T18:19:42.422Z,76.54
2022-07-31T18:22:10.270Z,75.77
2022-07-31T18:24:38.044Z,75.65
2022-07-31T18:27:07.758Z,75.07
2022-07-31T18:29:35.514Z,75.29
2022-07-31T18:32:08.233Z,74.25
2022-07-31T18:34:36.103Z,74.60
2022-07-31T18:37:04.917Z,75.09
2022-07-31T18:39:32.624Z,74.25
2022-07-31T18:42:00.361Z,74.29
2022-07-31T18:44:30.723Z,75.63
2022-07-31T18:46:58.430Z,74.19
2022-07-31T18:50:58.345Z,74.04
2022-07-31T18:52:16.068Z,73.98
2022-07-31T18:54:43.848Z,74.73
2022-07-31T18:57:11.891Z,74.71
2022-07-31T18:59:39.651Z,74.93
2022-07-31T19:02:08.646Z,76.28
2022-07-31T19:04:41.245Z,76.06
2022-07-31T19:07:09.003Z,75.53
2022-07-31T19:09:36.723Z,76.02
2022-07-31T19:12:08.210Z,77.88
2022-07-31T19:14:36.794Z,79.76
2022-07-31T19:17:08.281Z,79.68
2022-07-31T19:19:54.576Z,79.11
2022-07-31T19:22:25.555Z,80.18
2022-07-31T19:24:53.449Z,81.03
2022-07-31T19:27:21.342Z,79.94
2022-07-31T19:29:49.090Z,80.32
2022-07-31T19:32:16.823Z,81.41
2022-07-31T19:34:48.152Z,82.32
2022-07-31T19:37:20.079Z,81.75
2022-07-31T19:39:49.176Z,80.23
2022-07-31T19:42:17.009Z,81.07
2022-07-31T19:44:44.805Z,81.72
2022-07-31T19:47:12.544Z,80.83
2022-07-31T19:49:43.006Z,81.32
2022-07-31T19:52:10.821Z,81.91
2022-07-31T19:54:38.601Z,80.94
2022-07-31T19:57:07.659Z,81.16
2022-07-31T19:59:35.364Z,81.38
2022-07-31T20:02:03.414Z,81.39
2022-07-31T20:04:31.313Z,80.70
2022-07-31T20:06:59.017Z,79.98
2022-07-31T20:09:26.794Z,81.33
2022-07-31T20:11:54.460Z,80.56
2022-07-31T20:14:23.533Z,81.88
2022-07-31T20:16:51.270Z,80.98
2022-07-31T20:19:19.046Z,81.95
2022-07-31T20:21:46.763Z,82.81
2022-07-31T20:24:14.535Z,82.57
2022-07-31T20:26:42.212Z,80.19
2022-07-31T20:29:09.930Z,81.32
2022-07-31T20:31:39.697Z,79.50
2022-07-31T20:34:07.462Z,79.02
2022-07-31T20:36:35.221Z,79.28
2022-07-31T20:39:02.987Z,78.93
2022-07-31T20:41:30.868Z,78.27
2022-07-31T20:43:58.644Z,78.59
2022-07-31T20:46:27.580Z,81.81
2022-07-31T20:48:57.264Z,79.86
2022-07-31T20:51:25.016Z,79.81
2022-07-31T20:53:53.636Z,80.73
2022-07-31T20:56:22.513Z,79.99
2022-07-31T20:58:51.930Z,80.52
2022-07-31T21:01:20.866Z,80.14
2022-07-31T21:03:48.897Z,81.41
2022-07-31T21:06:19.202Z,80.51
2022-07-31T21:08:46.937Z,80.58
2022-07-31T21:11:14.660Z,80.50
2022-07-31T21:13:43.086Z,81.64
2022-07-31T21:16:10.859Z,80.48
2022-07-31T21:18:43.011Z,81.49
2022-07-31T21:21:11.457Z,80.91
2022-07-31T21:23:40.531Z,81.02
2022-07-31T21:26:08.661Z,81.32
2022-07-31T21:28:36.936Z,80.50
2022-07-31T21:31:05.314Z,80.82
2022-07-31T21:33:33.666Z,80.29
2022-07-31T21:36:02.964Z,80.17
2022-07-31T21:38:31.112Z,80.53
2022-07-31T21:41:00.735Z,79.75
2022-07-31T21:43:30.456Z,80.85
2022-07-31T21:46:07.326Z,81.38
2022-07-31T21:48:38.067Z,80.26
2022-07-31T21:51:06.403Z,81.27
2022-07-31T21:53:35.576Z,83.88
2022-07-31T21:56:05.037Z,82.02
2022-07-31T21:58:32.757Z,84.15
2022-07-31T22:01:00.549Z,84.79
2022-07-31T22:03:28.352Z,83.59
2022-07-31T22:06:13.758Z,82.90
2022-07-31T22:08:41.465Z,85.17
2022-07-31T22:11:10.682Z,82.21
2022-07-31T22:13:38.782Z,82.95
2022-07-31T22:16:06.823Z,85.22
2022-07-31T22:18:35.369Z,84.92
2022-07-31T22:21:04.858Z,85.74
2022-07-31T22:23:33.117Z,85.32
2022-07-31T22:26:03.573Z,86.09
2022-07-31T22:28:32.953Z,85.18
2022-07-31T22:31:00.976Z,86.29
2022-07-31T22:33:29.285Z,84.50
2022-07-31T22:36:00.537Z,84.36
2022-07-31T22:38:30.897Z,83.38
2022-07-31T22:40:59.097Z,84.79
2022-07-31T22:44:10.954Z,84.64
2022-07-31T22:46:16.638Z,85.79
2022-07-31T22:48:46.250Z,84.86
2022-07-31T22:51:15.175Z,84.03
2022-07-31T22:53:43.581Z,84.72
2022-07-31T22:56:11.330Z,86.24
2022-07-31T22:58:39.327Z,84.76
2022-07-31T23:01:07.056Z,84.35
2022-07-31T23:03:36.128Z,85.86
2022-07-31T23:06:31.666Z,86.27
2022-07-31T23:08:54.485Z,83.53
2022-07-31T23:11:24.329Z,86.28
2022-07-31T23:13:52.113Z,84.31
2022-07-31T23:16:20.940Z,85.20
2022-07-31T23:18:50.540Z,85.87
2022-07-31T23:21:18.495Z,84.70
2022-07-31T23:23:49.226Z,85.07
2022-07-31T23:26:18.692Z,86.94
2022-07-31T23:28:46.471Z,85.96
2022-07-31T23:31:14.255Z,85.94
2022-07-31T23:33:42.416Z,85.49
2022-07-31T23:36:11.529Z,86.04
2022-07-31T23:38:39.372Z,85.11
2022-07-31T23:41:07.448Z,87.67
2022-07-31T23:43:34.462Z,87.59
2022-07-31T23:46:03.037Z,86.09
2022-07-31T23:48:31.250Z,89.93
2022-07-31T23:50:59.221Z,87.27
2022-07-31T23:53:28.285Z,89.13
2022-07-31T23:55:55.992Z,89.14
2022-07-31T23:58:23.778Z,88.61
